This is the latest recevied weather packets stored in our database for station/object DL2GPS-3. If no packets are shown the sender has not sent any weather packets the latest 10 day(s).
| Time | Temp. | Humidity | Pressure | Rain* | Wind** | Luminosity | Snow |
|---|---|---|---|---|---|---|---|
| 1777883058 | 17.78° C | 41% | 1016.7 hPa | - | - | - | - |
| 1777882453 | 17.78° C | 41% | 1016.6 hPa | - | - | - | - |
| 1777881848 | 17.78° C | 42% | 1016.7 hPa | - | - | - | - |
| 1777881244 | 17.78° C | 42% | 1016.7 hPa | - | - | - | - |
| 1777880639 | 17.78° C | 42% | 1016.6 hPa | - | - | - | - |
| 1777880034 | 17.78° C | 43% | 1016.6 hPa | - | - | - | - |
| 1777879428 | 17.78° C | 44% | 1016.5 hPa | - | - | - | - |
| 1777878823 | 16.67° C | 46% | 1016.4 hPa | - | - | - | - |
| 1777878218 | 16.67° C | 47% | 1016.3 hPa | - | - | - | - |
| 1777877613 | 17.22° C | 46% | 1016.4 hPa | - | - | - | - |
| 1777877007 | 16.67° C | 49% | 1016.3 hPa | - | - | - | - |
| 1777876403 | 15° C | 55% | 1016.3 hPa | - | - | - | - |
| 1777875798 | 13.89° C | 65% | 1016.4 hPa | - | - | - | - |
| 1777875193 | 13.33° C | 75% | 1016.3 hPa | - | - | - | - |
| 1777874587 | 12.78° C | 76% | 1016.1 hPa | - | - | - | - |
| 1777873983 | 12.22° C | 74% | 1016.3 hPa | - | - | - | - |
| 1777873379 | 12.22° C | 75% | 1016.2 hPa | - | - | - | - |
| 1777872774 | 11.11° C | 83% | 1016.3 hPa | - | - | - | - |
| 1777872168 | 10.56° C | 75% | 1016.3 hPa | - | - | - | - |
| 1777871563 | 11.11° C | 77% | 1016.3 hPa | - | - | - | - |
| 1777870958 | 11.11° C | 76% | 1016.3 hPa | - | - | - | - |
| 1777870353 | 11.11° C | 75% | 1016.4 hPa | - | - | - | - |
| 1777869747 | 12.22° C | 69% | 1016.4 hPa | - | - | - | - |
| 1777869143 | 12.78° C | 68% | 1016.4 hPa | - | - | - | - |
| 1777868538 | 10° C | 80% | 1016.5 hPa | - | - | - | - |
* Rain since midnight (hover to see other rain measurements)
** Current wind speed in m/s (hover to see current wind gust speed)